sensor_id;sensor_type;location;lat;lon;timestamp;pressure;altitude;pressure_sealevel;temperature;humidity
3206;BME280;1615;53.602;11.418;2024-01-30T00:01:11;102173.53;;;5.20;97.11
3206;BME280;1615;53.602;11.418;2024-01-30T00:03:37;102417.75;;;6.88;97.69
3206;BME280;1615;53.602;11.418;2024-01-30T00:06:05;102403.22;;;6.76;98.09
3206;BME280;1615;53.602;11.418;2024-01-30T00:08:31;102413.97;;;6.89;98.02
3206;BME280;1615;53.602;11.418;2024-01-30T00:10:56;102414.78;;;6.89;98.20
3206;BME280;1615;53.602;11.418;2024-01-30T00:13:21;102405.78;;;6.89;98.01
3206;BME280;1615;53.602;11.418;2024-01-30T00:15:47;102390.94;;;6.85;97.26
3206;BME280;1615;53.602;11.418;2024-01-30T00:18:13;102414.13;;;6.94;97.21
3206;BME280;1615;53.602;11.418;2024-01-30T00:20:39;102399.41;;;6.77;96.85
3206;BME280;1615;53.602;11.418;2024-01-30T00:23:04;102424.25;;;6.87;97.06
3206;BME280;1615;53.602;11.418;2024-01-30T00:25:29;102395.72;;;6.71;97.09
3206;BME280;1615;53.602;11.418;2024-01-30T00:27:55;102425.66;;;6.78;96.93
3206;BME280;1615;53.602;11.418;2024-01-30T00:30:20;102427.38;;;6.72;97.53
3206;BME280;1615;53.602;11.418;2024-01-30T00:32:46;102396.13;;;6.57;98.00
3206;BME280;1615;53.602;11.418;2024-01-30T00:35:11;102419.88;;;6.68;98.37
3206;BME280;1615;53.602;11.418;2024-01-30T00:37:36;102419.88;;;6.68;97.96
3206;BME280;1615;53.602;11.418;2024-01-30T00:40:02;102378.84;;;6.45;98.38
3206;BME280;1615;53.602;11.418;2024-01-30T00:42:27;102395.34;;;6.50;98.54
3206;BME280;1615;53.602;11.418;2024-01-30T00:44:53;102355.41;;;6.26;98.26
3206;BME280;1615;53.602;11.418;2024-01-30T00:47:18;102393.53;;;6.44;98.84
3206;BME280;1615;53.602;11.418;2024-01-30T00:49:43;102400.63;;;6.45;98.53
3206;BME280;1615;53.602;11.418;2024-01-30T00:52:08;102406.88;;;6.52;99.03
3206;BME280;1615;53.602;11.418;2024-01-30T00:54:34;102403.78;;;6.48;99.60
3206;BME280;1615;53.602;11.418;2024-01-30T00:56:59;102369.41;;;6.29;99.38
3206;BME280;1615;53.602;11.418;2024-01-30T00:59:24;102300.16;;;5.83;99.25
3206;BME280;1615;53.602;11.418;2024-01-30T01:01:50;102375.16;;;6.21;99.12
3206;BME280;1615;53.602;11.418;2024-01-30T01:04:15;102378.47;;;6.23;99.55
3206;BME280;1615;53.602;11.418;2024-01-30T01:06:41;102402.75;;;6.25;99.09
3206;BME280;1615;53.602;11.418;2024-01-30T01:09:10;102373.22;;;6.04;99.67
3206;BME280;1615;53.602;11.418;2024-01-30T01:11:35;102356.19;;;5.90;100.00
3206;BME280;1615;53.602;11.418;2024-01-30T01:14:00;102362.00;;;5.94;100.00
3206;BME280;1615;53.602;11.418;2024-01-30T01:16:26;102383.66;;;6.07;100.00
3206;BME280;1615;53.602;11.418;2024-01-30T01:18:51;102099.47;;;4.33;100.00
3206;BME280;1615;53.602;11.418;2024-01-30T01:21:16;102393.88;;;6.11;100.00
3206;BME280;1615;53.602;11.418;2024-01-30T01:23:41;102343.69;;;5.83;100.00
3206;BME280;1615;53.602;11.418;2024-01-30T01:26:07;102391.81;;;6.07;100.00
3206;BME280;1615;53.602;11.418;2024-01-30T01:28:35;102395.44;;;6.01;100.00
3206;BME280;1615;53.602;11.418;2024-01-30T01:31:00;102334.34;;;5.48;100.00
3206;BME280;1615;53.602;11.418;2024-01-30T01:33:30;102368.81;;;5.54;100.00
3206;BME280;1615;53.602;11.418;2024-01-30T01:35:57;102396.19;;;5.59;100.00
3206;BME280;1615;53.602;11.418;2024-01-30T01:38:22;102395.38;;;5.58;100.00
3206;BME280;1615;53.602;11.418;2024-01-30T01:40:47;102364.41;;;5.28;100.00
3206;BME280;1615;53.602;11.418;2024-01-30T01:43:13;102384.22;;;5.35;100.00
3206;BME280;1615;53.602;11.418;2024-01-30T01:45:38;102397.69;;;5.55;100.00
3206;BME280;1615;53.602;11.418;2024-01-30T01:48:03;102390.81;;;5.52;100.00
3206;BME280;1615;53.602;11.418;2024-01-30T01:50:29;102331.25;;;5.13;100.00
3206;BME280;1615;53.602;11.418;2024-01-30T01:52:54;102391.66;;;5.46;100.00
3206;BME280;1615;53.602;11.418;2024-01-30T01:55:21;102339.78;;;5.17;100.00
3206;BME280;1615;53.602;11.418;2024-01-30T01:57:52;102390.84;;;5.46;100.00
3206;BME280;1615;53.602;11.418;2024-01-30T02:00:18;102365.84;;;5.31;100.00
3206;BME280;1615;53.602;11.418;2024-01-30T02:02:45;102369.63;;;5.30;100.00
3206;BME280;1615;53.602;11.418;2024-01-30T02:05:10;102388.56;;;5.43;100.00
3206;BME280;1615;53.602;11.418;2024-01-30T02:07:36;102391.09;;;5.38;100.00
3206;BME280;1615;53.602;11.418;2024-01-30T02:10:02;102368.00;;;5.22;100.00
3206;BME280;1615;53.602;11.418;2024-01-30T02:12:29;102363.84;;;5.20;100.00
3206;BME280;1615;53.602;11.418;2024-01-30T02:14:54;102292.63;;;4.74;100.00
3206;BME280;1615;53.602;11.418;2024-01-30T02:17:20;102334.06;;;5.00;100.00
3206;BME280;1615;53.602;11.418;2024-01-30T02:19:46;102333.00;;;5.01;100.00
3206;BME280;1615;53.602;11.418;2024-01-30T02:22:12;102337.78;;;5.06;100.00
3206;BME280;1615;53.602;11.418;2024-01-30T02:24:38;102321.94;;;5.03;100.00
3206;BME280;1615;53.602;11.418;2024-01-30T02:27:03;102387.53;;;5.44;100.00
3206;BME280;1615;53.602;11.418;2024-01-30T02:29:29;102354.19;;;5.24;100.00
3206;BME280;1615;53.602;11.418;2024-01-30T02:31:54;102290.44;;;4.89;100.00
3206;BME280;1615;53.602;11.418;2024-01-30T02:34:19;102355.75;;;5.38;100.00
3206;BME280;1615;53.602;11.418;2024-01-30T02:36:45;102423.38;;;5.59;100.00
3206;BME280;1615;53.602;11.418;2024-01-30T02:39:10;102290.53;;;5.07;100.00
3206;BME280;1615;53.602;11.418;2024-01-30T02:41:36;102366.88;;;5.61;100.00
3206;BME280;1615;53.602;11.418;2024-01-30T02:44:02;102373.53;;;5.65;100.00
3206;BME280;1615;53.602;11.418;2024-01-30T02:46:28;102368.50;;;5.68;100.00
3206;BME280;1615;53.602;11.418;2024-01-30T02:48:53;102341.00;;;5.52;100.00
3206;BME280;1615;53.602;11.418;2024-01-30T02:51:18;102344.63;;;5.46;100.00
3206;BME280;1615;53.602;11.418;2024-01-30T02:53:43;102367.50;;;5.63;100.00
3206;BME280;1615;53.602;11.418;2024-01-30T02:56:09;102289.84;;;5.18;100.00
3206;BME280;1615;53.602;11.418;2024-01-30T02:58:36;102338.72;;;5.49;100.00
3206;BME280;1615;53.602;11.418;2024-01-30T03:01:02;102334.28;;;5.54;100.00
3206;BME280;1615;53.602;11.418;2024-01-30T03:03:27;102348.91;;;5.60;100.00
3206;BME280;1615;53.602;11.418;2024-01-30T03:05:52;102365.09;;;5.73;100.00
3206;BME280;1615;53.602;11.418;2024-01-30T03:08:18;102332.59;;;5.60;100.00
3206;BME280;1615;53.602;11.418;2024-01-30T03:10:43;102339.59;;;5.67;100.00
3206;BME280;1615;53.602;11.418;2024-01-30T03:13:08;102337.72;;;5.68;100.00
3206;BME280;1615;53.602;11.418;2024-01-30T03:15:33;102337.72;;;5.68;100.00
3206;BME280;1615;53.602;11.418;2024-01-30T03:17:59;102353.78;;;5.76;100.00
3206;BME280;1615;53.602;11.418;2024-01-30T03:20:24;102356.34;;;5.71;100.00
3206;BME280;1615;53.602;11.418;2024-01-30T03:22:49;102345.13;;;5.61;100.00
3206;BME280;1615;53.602;11.418;2024-01-30T03:25:15;102329.22;;;5.58;100.00
3206;BME280;1615;53.602;11.418;2024-01-30T03:27:40;102356.56;;;5.69;100.00
3206;BME280;1615;53.602;11.418;2024-01-30T03:30:06;102353.38;;;5.72;100.00
3206;BME280;1615;53.602;11.418;2024-01-30T03:32:31;102317.59;;;5.51;100.00
3206;BME280;1615;53.602;11.418;2024-01-30T03:34:57;102357.53;;;5.75;100.00
3206;BME280;1615;53.602;11.418;2024-01-30T03:37:23;102359.19;;;5.82;100.00
3206;BME280;1615;53.602;11.418;2024-01-30T03:39:48;102324.97;;;5.68;100.00
3206;BME280;1615;53.602;11.418;2024-01-30T03:42:13;102345.34;;;5.84;100.00
3206;BME280;1615;53.602;11.418;2024-01-30T03:44:39;102237.88;;;5.26;100.00
3206;BME280;1615;53.602;11.418;2024-01-30T03:47:04;102331.41;;;5.74;100.00
3206;BME280;1615;53.602;11.418;2024-01-30T03:49:29;102347.88;;;5.79;100.00
3206;BME280;1615;53.602;11.418;2024-01-30T03:51:55;102318.81;;;5.55;100.00
3206;BME280;1615;53.602;11.418;2024-01-30T03:54:20;102346.78;;;5.62;100.00
3206;BME280;1615;53.602;11.418;2024-01-30T03:56:45;102333.53;;;5.47;100.00
3206;BME280;1615;53.602;11.418;2024-01-30T03:59:10;102343.28;;;5.55;100.00
3206;BME280;1615;53.602;11.418;2024-01-30T04:01:36;102330.69;;;5.36;100.00
3206;BME280;1615;53.602;11.418;2024-01-30T04:04:01;102294.91;;;5.08;100.00
3206;BME280;1615;53.602;11.418;2024-01-30T04:06:26;102349.00;;;5.47;100.00
3206;BME280;1615;53.602;11.418;2024-01-30T04:08:52;102356.59;;;5.38;100.00
3206;BME280;1615;53.602;11.418;2024-01-30T04:11:18;102334.09;;;5.25;100.00
3206;BME280;1615;53.602;11.418;2024-01-30T04:13:44;102358.72;;;5.36;100.00
3206;BME280;1615;53.602;11.418;2024-01-30T04:16:21;102339.78;;;5.17;100.00
3206;BME280;1615;53.602;11.418;2024-01-30T04:18:47;102350.47;;;5.43;100.00
3206;BME280;1615;53.602;11.418;2024-01-30T04:21:13;102227.91;;;4.64;100.00
3206;BME280;1615;53.602;11.418;2024-01-30T04:23:42;102219.75;;;4.64;100.00
3206;BME280;1615;53.602;11.418;2024-01-30T04:26:07;102340.25;;;5.45;100.00
3206;BME280;1615;53.602;11.418;2024-01-30T04:28:32;102318.56;;;5.32;100.00
3206;BME280;1615;53.602;11.418;2024-01-30T04:30:57;102338.88;;;5.54;100.00
3206;BME280;1615;53.602;11.418;2024-01-30T04:33:23;102340.97;;;5.58;100.00
3206;BME280;1615;53.602;11.418;2024-01-30T04:35:48;102011.88;;;3.64;100.00
3206;BME280;1615;53.602;11.418;2024-01-30T04:38:13;102343.38;;;5.66;100.00
3206;BME280;1615;53.602;11.418;2024-01-30T04:40:40;102337.72;;;5.68;100.00
3206;BME280;1615;53.602;11.418;2024-01-30T04:43:05;102328.34;;;5.64;100.00
3206;BME280;1615;53.602;11.418;2024-01-30T04:45:30;102308.09;;;5.60;100.00
3206;BME280;1615;53.602;11.418;2024-01-30T04:47:55;102323.69;;;5.71;100.00
3206;BME280;1615;53.602;11.418;2024-01-30T04:50:21;102221.19;;;5.22;100.00
3206;BME280;1615;53.602;11.418;2024-01-30T04:52:46;102329.19;;;5.89;100.00
3206;BME280;1615;53.602;11.418;2024-01-30T04:55:11;102314.34;;;5.85;100.00
3206;BME280;1615;53.602;11.418;2024-01-30T04:57:37;102323.91;;;5.94;100.00
3206;BME280;1615;53.602;11.418;2024-01-30T05:00:02;102288.66;;;5.81;100.00
3206;BME280;1615;53.602;11.418;2024-01-30T05:02:28;102236.91;;;5.45;100.00
3206;BME280;1615;53.602;11.418;2024-01-30T05:04:53;102323.31;;;6.10;100.00
3206;BME280;1615;53.602;11.418;2024-01-30T05:07:19;102171.84;;;5.25;100.00
3206;BME280;1615;53.602;11.418;2024-01-30T05:09:44;102323.53;;;6.26;100.00
3206;BME280;1615;53.602;11.418;2024-01-30T05:12:09;102235.72;;;5.77;100.00
3206;BME280;1615;53.602;11.418;2024-01-30T05:14:35;102315.94;;;6.35;100.00
3206;BME280;1615;53.602;11.418;2024-01-30T05:17:00;102072.69;;;4.85;100.00
3206;BME280;1615;53.602;11.418;2024-01-30T05:19:25;102301.84;;;6.20;100.00
3206;BME280;1615;53.602;11.418;2024-01-30T05:21:50;102284.00;;;6.06;100.00
3206;BME280;1615;53.602;11.418;2024-01-30T05:24:16;102301.06;;;6.13;100.00
3206;BME280;1615;53.602;11.418;2024-01-30T05:26:41;102316.44;;;6.25;100.00
3206;BME280;1615;53.602;11.418;2024-01-30T05:29:07;102380.34;;;6.23;100.00
3206;BME280;1615;53.602;11.418;2024-01-30T05:31:33;102343.59;;;6.14;100.00
3206;BME280;1615;53.602;11.418;2024-01-30T05:33:59;102304.75;;;5.82;100.00
3206;BME280;1615;53.602;11.418;2024-01-30T05:36:25;102081.31;;;4.58;100.00
3206;BME280;1615;53.602;11.418;2024-01-30T05:38:50;102297.91;;;5.98;100.00
3206;BME280;1615;53.602;11.418;2024-01-30T05:41:15;102281.97;;;6.01;100.00
3206;BME280;1615;53.602;11.418;2024-01-30T05:43:42;102300.78;;;6.21;100.00
3206;BME280;1615;53.602;11.418;2024-01-30T05:46:07;102308.03;;;6.27;100.00
3206;BME280;1615;53.602;11.418;2024-01-30T05:48:32;101950.97;;;4.15;100.00
3206;BME280;1615;53.602;11.418;2024-01-30T05:51:00;102308.94;;;6.39;100.00
3206;BME280;1615;53.602;11.418;2024-01-30T05:53:25;102309.94;;;6.44;100.00
3206;BME280;1615;53.602;11.418;2024-01-30T05:55:50;102263.72;;;6.20;100.00
3206;BME280;1615;53.602;11.418;2024-01-30T05:58:16;102273.22;;;6.29;100.00
3206;BME280;1615;53.602;11.418;2024-01-30T06:00:41;102278.31;;;6.25;100.00
3206;BME280;1615;53.602;11.418;2024-01-30T06:03:07;102287.00;;;6.34;100.00
3206;BME280;1615;53.602;11.418;2024-01-30T06:05:32;102310.38;;;6.41;100.00
3206;BME280;1615;53.602;11.418;2024-01-30T06:07:58;102310.16;;;6.43;100.00
3206;BME280;1615;53.602;11.418;2024-01-30T06:10:23;102276.03;;;6.40;100.00
3206;BME280;1615;53.602;11.418;2024-01-30T06:12:50;102210.25;;;6.07;100.00
3206;BME280;1615;53.602;11.418;2024-01-30T06:15:16;102282.50;;;6.57;100.00
3206;BME280;1615;53.602;11.418;2024-01-30T06:17:41;102260.06;;;6.44;100.00
3206;BME280;1615;53.602;11.418;2024-01-30T06:20:07;102255.81;;;6.48;100.00
3206;BME280;1615;53.602;11.418;2024-01-30T06:22:32;102022.16;;;5.02;100.00
3206;BME280;1615;53.602;11.418;2024-01-30T06:24:58;102278.03;;;6.63;100.00
3206;BME280;1615;53.602;11.418;2024-01-30T06:27:23;102269.38;;;6.66;100.00
3206;BME280;1615;53.602;11.418;2024-01-30T06:29:48;102175.84;;;6.13;100.00
3206;BME280;1615;53.602;11.418;2024-01-30T06:32:13;102181.69;;;6.16;100.00
3206;BME280;1615;53.602;11.418;2024-01-30T06:34:40;102268.56;;;6.65;100.00
3206;BME280;1615;53.602;11.418;2024-01-30T06:37:06;102273.31;;;6.70;100.00
3206;BME280;1615;53.602;11.418;2024-01-30T06:39:31;102282.44;;;6.64;100.00
3206;BME280;1615;53.602;11.418;2024-01-30T06:41:56;102286.22;;;6.63;100.00
3206;BME280;1615;53.602;11.418;2024-01-30T06:44:22;102268.84;;;6.46;100.00
3206;BME280;1615;53.602;11.418;2024-01-30T06:46:47;102280.94;;;6.50;100.00
3206;BME280;1615;53.602;11.418;2024-01-30T06:49:12;102329.38;;;6.48;100.00
3206;BME280;1615;53.602;11.418;2024-01-30T06:51:37;102248.28;;;6.32;100.00
3206;BME280;1615;53.602;11.418;2024-01-30T06:54:03;102201.81;;;5.97;100.00
3206;BME280;1615;53.602;11.418;2024-01-30T06:56:29;102255.38;;;6.33;100.00
3206;BME280;1615;53.602;11.418;2024-01-30T06:58:55;102189.25;;;5.96;100.00
3206;BME280;1615;53.602;11.418;2024-01-30T07:01:20;102258.25;;;6.38;100.00
3206;BME280;1615;53.602;11.418;2024-01-30T07:03:46;102263.25;;;6.41;100.00
3206;BME280;1615;53.602;11.418;2024-01-30T07:06:11;102271.72;;;6.33;100.00
3206;BME280;1615;53.602;11.418;2024-01-30T07:08:37;102244.53;;;6.15;100.00
3206;BME280;1615;53.602;11.418;2024-01-30T07:11:06;102111.13;;;5.31;100.00
3206;BME280;1615;53.602;11.418;2024-01-30T07:13:33;102152.00;;;5.61;100.00
3206;BME280;1615;53.602;11.418;2024-01-30T07:15:58;102274.81;;;6.36;100.00
3206;BME280;1615;53.602;11.418;2024-01-30T07:18:24;102240.03;;;6.20;100.00
3206;BME280;1615;53.602;11.418;2024-01-30T07:20:49;102240.19;;;6.25;100.00
3206;BME280;1615;53.602;11.418;2024-01-30T07:23:15;102187.91;;;5.87;100.00
3206;BME280;1615;53.602;11.418;2024-01-30T07:25:43;102301.25;;;6.36;100.00
3206;BME280;1615;53.602;11.418;2024-01-30T07:28:08;102164.13;;;5.76;100.00
3206;BME280;1615;53.602;11.418;2024-01-30T07:30:35;102235.00;;;6.24;100.00
3206;BME280;1615;53.602;11.418;2024-01-30T07:33:00;102278.38;;;6.37;100.00
3206;BME280;1615;53.602;11.418;2024-01-30T07:35:25;102257.19;;;6.39;100.00
3206;BME280;1615;53.602;11.418;2024-01-30T07:37:51;102263.84;;;6.43;100.00
3206;BME280;1615;53.602;11.418;2024-01-30T07:40:17;102258.75;;;6.46;100.00
3206;BME280;1615;53.602;11.418;2024-01-30T07:42:42;102224.22;;;6.29;100.00
3206;BME280;1615;53.602;11.418;2024-01-30T07:45:08;102264.69;;;6.43;100.00
3206;BME280;1615;53.602;11.418;2024-01-30T07:47:33;102270.13;;;6.43;100.00
3206;BME280;1615;53.602;11.418;2024-01-30T07:49:59;102274.66;;;6.49;100.00
3206;BME280;1615;53.602;11.418;2024-01-30T07:52:24;102256.44;;;6.32;100.00
3206;BME280;1615;53.602;11.418;2024-01-30T07:54:50;102222.81;;;6.08;100.00
3206;BME280;1615;53.602;11.418;2024-01-30T07:57:16;102270.91;;;6.14;100.00
3206;BME280;1615;53.602;11.418;2024-01-30T07:59:42;102259.63;;;6.29;100.00
3206;BME280;1615;53.602;11.418;2024-01-30T08:02:09;102261.31;;;6.30;100.00
3206;BME280;1615;53.602;11.418;2024-01-30T08:04:35;102238.16;;;6.21;100.00
3206;BME280;1615;53.602;11.418;2024-01-30T08:07:00;102263.91;;;6.36;100.00
3206;BME280;1615;53.602;11.418;2024-01-30T08:09:25;102265.88;;;6.47;100.00
3206;BME280;1615;53.602;11.418;2024-01-30T08:11:50;102191.97;;;5.96;100.00
3206;BME280;1615;53.602;11.418;2024-01-30T08:14:16;102269.66;;;6.64;100.00
3206;BME280;1615;53.602;11.418;2024-01-30T08:16:41;102174.03;;;6.07;100.00
3206;BME280;1615;53.602;11.418;2024-01-30T08:19:06;102267.16;;;6.74;100.00
3206;BME280;1615;53.602;11.418;2024-01-30T08:21:32;102264.22;;;6.76;100.00
3206;BME280;1615;53.602;11.418;2024-01-30T08:24:04;102235.88;;;6.65;100.00
3206;BME280;1615;53.602;11.418;2024-01-30T08:26:30;102274.94;;;6.89;100.00
3206;BME280;1615;53.602;11.418;2024-01-30T08:28:55;102253.13;;;6.89;100.00
3206;BME280;1615;53.602;11.418;2024-01-30T08:31:21;102269.63;;;7.05;100.00
3206;BME280;1615;53.602;11.418;2024-01-30T08:33:46;102223.38;;;6.87;100.00
3206;BME280;1615;53.602;11.418;2024-01-30T08:36:11;102182.47;;;6.76;100.00
3206;BME280;1615;53.602;11.418;2024-01-30T08:38:37;102254.66;;;7.26;100.00
3206;BME280;1615;53.602;11.418;2024-01-30T08:41:02;102228.19;;;7.15;100.00
3206;BME280;1615;53.602;11.418;2024-01-30T08:43:28;102255.72;;;7.36;100.00
3206;BME280;1615;53.602;11.418;2024-01-30T08:45:53;102247.75;;;7.35;100.00
3206;BME280;1615;53.602;11.418;2024-01-30T08:48:18;102265.00;;;7.47;100.00
3206;BME280;1615;53.602;11.418;2024-01-30T08:50:44;102259.66;;;7.52;100.00
3206;BME280;1615;53.602;11.418;2024-01-30T08:53:09;102243.28;;;7.52;100.00
3206;BME280;1615;53.602;11.418;2024-01-30T08:55:34;102199.25;;;7.25;100.00
3206;BME280;1615;53.602;11.418;2024-01-30T08:57:59;102234.03;;;7.53;100.00
3206;BME280;1615;53.602;11.418;2024-01-30T09:00:25;102245.28;;;7.68;100.00
3206;BME280;1615;53.602;11.418;2024-01-30T09:02:50;102234.25;;;7.63;100.00
3206;BME280;1615;53.602;11.418;2024-01-30T09:05:15;102247.75;;;7.81;100.00
3206;BME280;1615;53.602;11.418;2024-01-30T09:07:41;102249.06;;;7.90;100.00
3206;BME280;1615;53.602;11.418;2024-01-30T09:10:06;102197.72;;;7.64;100.00
3206;BME280;1615;53.602;11.418;2024-01-30T09:12:32;102223.06;;;7.87;100.00
3206;BME280;1615;53.602;11.418;2024-01-30T09:14:58;102219.25;;;8.00;100.00
3206;BME280;1615;53.602;11.418;2024-01-30T09:17:23;102236.41;;;8.23;100.00
3206;BME280;1615;53.602;11.418;2024-01-30T09:19:48;102161.31;;;7.86;100.00
3206;BME280;1615;53.602;11.418;2024-01-30T09:22:13;102212.09;;;8.22;100.00
3206;BME280;1615;53.602;11.418;2024-01-30T09:24:40;102191.19;;;8.16;100.00
3206;BME280;1615;53.602;11.418;2024-01-30T09:27:05;102236.38;;;8.46;100.00
3206;BME280;1615;53.602;11.418;2024-01-30T09:29:31;102189.63;;;8.20;100.00
3206;BME280;1615;53.602;11.418;2024-01-30T09:31:58;102236.81;;;8.55;100.00
3206;BME280;1615;53.602;11.418;2024-01-30T09:34:23;102178.09;;;8.29;100.00
3206;BME280;1615;53.602;11.418;2024-01-30T09:36:48;102119.78;;;7.96;100.00
3206;BME280;1615;53.602;11.418;2024-01-30T09:39:14;102238.25;;;8.74;100.00
3206;BME280;1615;53.602;11.418;2024-01-30T09:41:51;102192.47;;;8.53;100.00
3206;BME280;1615;53.602;11.418;2024-01-30T09:44:21;102230.13;;;8.79;100.00
3206;BME280;1615;53.602;11.418;2024-01-30T09:46:48;102210.81;;;8.69;100.00
3206;BME280;1615;53.602;11.418;2024-01-30T09:49:14;102191.66;;;8.69;100.00
3206;BME280;1615;53.602;11.418;2024-01-30T09:51:40;102138.44;;;8.27;100.00
3206;BME280;1615;53.602;11.418;2024-01-30T09:54:08;102282.88;;;8.91;100.00
3206;BME280;1615;53.602;11.418;2024-01-30T09:56:33;102231.50;;;8.93;100.00
3206;BME280;1615;53.602;11.418;2024-01-30T09:58:58;102106.00;;;8.19;100.00
3206;BME280;1615;53.602;11.418;2024-01-30T10:01:25;102216.75;;;8.94;100.00
3206;BME280;1615;53.602;11.418;2024-01-30T10:03:51;102229.66;;;8.98;100.00
3206;BME280;1615;53.602;11.418;2024-01-30T10:06:18;102071.88;;;8.05;100.00
3206;BME280;1615;53.602;11.418;2024-01-30T10:08:43;101996.31;;;7.66;100.00
3206;BME280;1615;53.602;11.418;2024-01-30T10:11:09;102187.75;;;8.93;100.00
3206;BME280;1615;53.602;11.418;2024-01-30T10:13:34;102205.97;;;9.04;100.00
3206;BME280;1615;53.602;11.418;2024-01-30T10:16:00;102202.59;;;8.97;100.00
3206;BME280;1615;53.602;11.418;2024-01-30T10:18:27;102096.66;;;8.43;100.00
3206;BME280;1615;53.602;11.418;2024-01-30T10:20:52;102185.34;;;8.80;100.00
3206;BME280;1615;53.602;11.418;2024-01-30T10:23:18;102199.25;;;8.78;100.00
3206;BME280;1615;53.602;11.418;2024-01-30T10:25:44;102024.75;;;7.81;100.00
3206;BME280;1615;53.602;11.418;2024-01-30T10:28:10;102184.59;;;8.84;100.00
3206;BME280;1615;53.602;11.418;2024-01-30T10:30:35;102135.84;;;8.65;100.00
3206;BME280;1615;53.602;11.418;2024-01-30T10:33:00;102220.75;;;9.03;100.00
3206;BME280;1615;53.602;11.418;2024-01-30T10:35:26;102175.72;;;8.94;100.00
3206;BME280;1615;53.602;11.418;2024-01-30T10:37:51;102168.16;;;9.01;100.00
3206;BME280;1615;53.602;11.418;2024-01-30T10:40:21;102206.13;;;9.30;100.00
3206;BME280;1615;53.602;11.418;2024-01-30T10:42:51;102193.28;;;9.31;100.00
3206;BME280;1615;53.602;11.418;2024-01-30T10:45:18;102141.97;;;9.21;100.00
3206;BME280;1615;53.602;11.418;2024-01-30T10:47:49;102088.44;;;8.92;100.00
3206;BME280;1615;53.602;11.418;2024-01-30T10:50:16;102190.34;;;9.54;100.00
3206;BME280;1615;53.602;11.418;2024-01-30T10:52:42;102146.91;;;9.41;100.00
3206;BME280;1615;53.602;11.418;2024-01-30T10:55:09;102179.38;;;9.70;100.00
3206;BME280;1615;53.602;11.418;2024-01-30T10:57:35;102093.91;;;9.09;100.00
3206;BME280;1615;53.602;11.418;2024-01-30T11:00:06;102232.34;;;9.81;100.00
3206;BME280;1615;53.602;11.418;2024-01-30T11:02:40;102170.28;;;9.86;100.00
3206;BME280;1615;53.602;11.418;2024-01-30T11:05:06;102178.63;;;9.96;99.61
3206;BME280;1615;53.602;11.418;2024-01-30T11:07:31;102204.53;;;9.89;99.20
3206;BME280;1615;53.602;11.418;2024-01-30T11:12:26;102166.81;;;9.96;99.58
3206;BME280;1615;53.602;11.418;2024-01-30T11:15:12;102171.81;;;9.99;99.58
3206;BME280;1615;53.602;11.418;2024-01-30T11:17:51;102166.31;;;9.99;100.00
3206;BME280;1615;53.602;11.418;2024-01-30T11:20:27;102161.50;;;10.06;99.57
3206;BME280;1615;53.602;11.418;2024-01-30T11:22:56;102151.75;;;10.15;99.39
3206;BME280;1615;53.602;11.418;2024-01-30T11:25:23;102152.44;;;10.27;99.07
3206;BME280;1615;53.602;11.418;2024-01-30T11:27:53;102148.16;;;10.36;98.02
3206;BME280;1615;53.602;11.418;2024-01-30T11:30:25;102153.06;;;10.34;97.73
3206;BME280;1615;53.602;11.418;2024-01-30T11:33:05;102158.94;;;10.21;96.79
3206;BME280;1615;53.602;11.418;2024-01-30T11:35:35;102108.47;;;10.17;97.59
3206;BME280;1615;53.602;11.418;2024-01-30T11:38:01;102103.53;;;10.14;98.08
3206;BME280;1615;53.602;11.418;2024-01-30T11:40:28;101874.13;;;8.77;98.02
3206;BME280;1615;53.602;11.418;2024-01-30T11:42:55;102104.78;;;10.33;97.78
3206;BME280;1615;53.602;11.418;2024-01-30T11:45:20;102046.22;;;10.12;98.64
3206;BME280;1615;53.602;11.418;2024-01-30T11:47:46;102101.16;;;10.54;98.27
3206;BME280;1615;53.602;11.418;2024-01-30T11:50:11;102105.09;;;10.63;98.16
3206;BME280;1615;53.602;11.418;2024-01-30T11:52:37;102057.44;;;10.42;97.62
3206;BME280;1615;53.602;11.418;2024-01-30T11:55:03;102064.38;;;10.50;97.82
3206;BME280;1615;53.602;11.418;2024-01-30T11:57:29;102091.97;;;10.70;97.29
3206;BME280;1615;53.602;11.418;2024-01-30T11:59:54;102107.97;;;10.78;97.99
3206;BME280;1615;53.602;11.418;2024-01-30T12:02:19;102109.88;;;10.77;97.99
3206;BME280;1615;53.602;11.418;2024-01-30T12:04:45;102084.34;;;10.72;97.84
3206;BME280;1615;53.602;11.418;2024-01-30T12:07:11;102109.03;;;10.77;97.68
3206;BME280;1615;53.602;11.418;2024-01-30T12:09:36;102093.72;;;10.81;98.19
3206;BME280;1615;53.602;11.418;2024-01-30T12:12:02;102101.72;;;10.87;97.95
3206;BME280;1615;53.602;11.418;2024-01-30T12:14:27;102101.47;;;10.89;97.88
3206;BME280;1615;53.602;11.418;2024-01-30T12:16:53;102091.59;;;10.88;97.91
3206;BME280;1615;53.602;11.418;2024-01-30T12:19:22;102089.44;;;10.95;97.11
3206;BME280;1615;53.602;11.418;2024-01-30T12:21:53;102098.84;;;11.04;96.89
3206;BME280;1615;53.602;11.418;2024-01-30T12:24:19;102026.03;;;10.55;96.62
3206;BME280;1615;53.602;11.418;2024-01-30T12:26:44;102102.69;;;11.08;97.35
3206;BME280;1615;53.602;11.418;2024-01-30T12:29:09;102087.03;;;11.03;97.04
3206;BME280;1615;53.602;11.418;2024-01-30T12:31:35;102065.09;;;11.03;96.42
3206;BME280;1615;53.602;11.418;2024-01-30T12:34:00;101900.13;;;10.07;95.99
3206;BME280;1615;53.602;11.418;2024-01-30T12:36:26;102077.56;;;11.21;96.37
3206;BME280;1615;53.602;11.418;2024-01-30T12:38:51;102060.19;;;11.10;96.69
3206;BME280;1615;53.602;11.418;2024-01-30T12:41:17;102070.41;;;11.20;97.40
3206;BME280;1615;53.602;11.418;2024-01-30T12:43:43;102113.28;;;11.26;97.11
3206;BME280;1615;53.602;11.418;2024-01-30T12:46:09;102044.53;;;11.11;96.73
3206;BME280;1615;53.602;11.418;2024-01-30T12:48:34;102080.06;;;11.32;96.46
3206;BME280;1615;53.602;11.418;2024-01-30T12:51:00;102074.03;;;11.30;96.30
3206;BME280;1615;53.602;11.418;2024-01-30T12:53:25;102058.34;;;11.21;97.00
3206;BME280;1615;53.602;11.418;2024-01-30T12:55:50;102058.72;;;11.39;96.34
3206;BME280;1615;53.602;11.418;2024-01-30T12:58:16;102057.88;;;11.39;96.19